sensor_id;sensor_type;location;lat;lon;timestamp;pressure;altitude;pressure_sealevel;temperature;humidity
62634;BME280;48704;50.534;6.442;2023-05-03T00:00:26;96489.09;;;2.61;100.00
62634;BME280;48704;50.534;6.442;2023-05-03T00:02:51;96497.06;;;2.52;100.00
62634;BME280;48704;50.534;6.442;2023-05-03T00:05:18;96482.59;;;2.37;100.00
62634;BME280;48704;50.534;6.442;2023-05-03T00:07:45;96493.56;;;2.44;100.00
62634;BME280;48704;50.534;6.442;2023-05-03T00:10:11;96491.22;;;2.39;100.00
62634;BME280;48704;50.534;6.442;2023-05-03T00:12:41;96490.50;;;2.28;100.00
62634;BME280;48704;50.534;6.442;2023-05-03T00:15:07;96491.28;;;2.32;100.00
62634;BME280;48704;50.534;6.442;2023-05-03T00:17:33;96487.44;;;2.19;100.00
62634;BME280;48704;50.534;6.442;2023-05-03T00:19:59;96484.34;;;2.10;100.00
62634;BME280;48704;50.534;6.442;2023-05-03T00:22:25;96480.41;;;2.11;100.00
62634;BME280;48704;50.534;6.442;2023-05-03T00:24:51;96489.81;;;2.17;100.00
62634;BME280;48704;50.534;6.442;2023-05-03T00:27:17;96489.75;;;2.24;100.00
62634;BME280;48704;50.534;6.442;2023-05-03T00:29:42;96489.69;;;2.31;100.00
62634;BME280;48704;50.534;6.442;2023-05-03T00:32:07;96485.72;;;2.39;100.00
62634;BME280;48704;50.534;6.442;2023-05-03T00:34:35;96481.91;;;2.22;100.00
62634;BME280;48704;50.534;6.442;2023-05-03T00:37:00;96485.09;;;2.14;100.00
62634;BME280;48704;50.534;6.442;2023-05-03T00:39:28;96484.31;;;2.17;100.00
62634;BME280;48704;50.534;6.442;2023-05-03T00:41:59;96487.50;;;2.05;100.00
62634;BME280;48704;50.534;6.442;2023-05-03T00:44:25;96485.50;;;2.09;100.00
62634;BME280;48704;50.534;6.442;2023-05-03T00:46:51;96486.69;;;2.08;100.00
62634;BME280;48704;50.534;6.442;2023-05-03T00:49:16;96492.97;;;2.08;100.00
62634;BME280;48704;50.534;6.442;2023-05-03T00:51:42;96495.34;;;2.10;100.00
62634;BME280;48704;50.534;6.442;2023-05-03T00:54:07;96494.56;;;2.06;100.00
62634;BME280;48704;50.534;6.442;2023-05-03T00:56:33;96492.19;;;2.08;100.00
62634;BME280;48704;50.534;6.442;2023-05-03T00:59:00;96493.75;;;2.09;100.00
62634;BME280;48704;50.534;6.442;2023-05-03T01:01:26;96494.56;;;2.06;100.00
62634;BME280;48704;50.534;6.442;2023-05-03T01:03:52;96496.94;;;2.04;100.00
62634;BME280;48704;50.534;6.442;2023-05-03T01:08:57;96486.75;;;1.97;100.00
62634;BME280;48704;50.534;6.442;2023-05-03T01:11:44;96495.38;;;1.95;100.00
62634;BME280;48704;50.534;6.442;2023-05-03T01:16:46;96486.38;;;1.88;100.00
62634;BME280;48704;50.534;6.442;2023-05-03T01:19:35;96486.00;;;1.89;100.00
62634;BME280;48704;50.534;6.442;2023-05-03T01:22:10;96484.81;;;1.90;100.00
62634;BME280;48704;50.534;6.442;2023-05-03T01:24:40;96480.53;;;1.82;100.00
62634;BME280;48704;50.534;6.442;2023-05-03T01:27:06;96478.13;;;1.95;100.00
62634;BME280;48704;50.534;6.442;2023-05-03T01:29:33;96476.19;;;1.88;100.00
62634;BME280;48704;50.534;6.442;2023-05-03T01:32:00;96479.75;;;1.85;100.00
62634;BME280;48704;50.534;6.442;2023-05-03T01:37:09;96475.06;;;1.75;100.00
62634;BME280;48704;50.534;6.442;2023-05-03T01:39:40;96477.44;;;1.73;100.00
62634;BME280;48704;50.534;6.442;2023-05-03T01:42:08;96473.53;;;1.67;100.00
62634;BME280;48704;50.534;6.442;2023-05-03T01:44:33;96476.28;;;1.63;100.00
62634;BME280;48704;50.534;6.442;2023-05-03T01:47:00;96484.13;;;1.65;100.00
62634;BME280;48704;50.534;6.442;2023-05-03T01:49:26;96479.22;;;2.12;100.00
62634;BME280;48704;50.534;6.442;2023-05-03T01:51:51;96472.94;;;2.08;100.00
62634;BME280;48704;50.534;6.442;2023-05-03T01:54:16;96480.53;;;1.82;100.00
62634;BME280;48704;50.534;6.442;2023-05-03T01:56:42;96475.47;;;1.77;100.00
62634;BME280;48704;50.534;6.442;2023-05-03T01:59:07;96477.44;;;1.70;100.00
62634;BME280;48704;50.534;6.442;2023-05-03T02:01:32;96482.94;;;1.70;100.00
62634;BME280;48704;50.534;6.442;2023-05-03T02:03:58;96480.59;;;1.61;100.00
62634;BME280;48704;50.534;6.442;2023-05-03T02:06:24;96487.28;;;1.63;100.00
62634;BME280;48704;50.534;6.442;2023-05-03T02:08:50;96495.50;;;1.67;100.00
62634;BME280;48704;50.534;6.442;2023-05-03T02:11:15;96494.94;;;2.08;100.00
62634;BME280;48704;50.534;6.442;2023-05-03T02:13:40;96491.63;;;2.41;100.00
62634;BME280;48704;50.534;6.442;2023-05-03T02:16:06;96488.28;;;2.01;100.00
62634;BME280;48704;50.534;6.442;2023-05-03T02:18:31;96487.56;;;1.87;100.00
62634;BME280;48704;50.534;6.442;2023-05-03T02:20:57;96485.28;;;1.71;100.00
62634;BME280;48704;50.534;6.442;2023-05-03T02:23:23;96483.75;;;1.52;100.00
62634;BME280;48704;50.534;6.442;2023-05-03T02:25:48;96493.63;;;1.43;100.00
62634;BME280;48704;50.534;6.442;2023-05-03T02:28:14;96493.63;;;1.39;100.00
62634;BME280;48704;50.534;6.442;2023-05-03T02:30:39;96493.63;;;1.43;100.00
62634;BME280;48704;50.534;6.442;2023-05-03T02:33:04;96496.38;;;1.39;100.00
62634;BME280;48704;50.534;6.442;2023-05-03T02:35:30;96500.31;;;1.34;100.00
62634;BME280;48704;50.534;6.442;2023-05-03T02:37:55;96497.19;;;1.25;100.00
62634;BME280;48704;50.534;6.442;2023-05-03T02:40:21;96505.41;;;1.25;100.00
62634;BME280;48704;50.534;6.442;2023-05-03T02:42:46;96503.44;;;1.26;100.00
62634;BME280;48704;50.534;6.442;2023-05-03T02:45:11;96496.78;;;1.23;100.00
62634;BME280;48704;50.534;6.442;2023-05-03T02:47:37;96503.06;;;1.24;100.00
62634;BME280;48704;50.534;6.442;2023-05-03T02:50:02;96493.25;;;1.23;100.00
62634;BME280;48704;50.534;6.442;2023-05-03T02:52:27;96490.09;;;1.35;100.00
62634;BME280;48704;50.534;6.442;2023-05-03T02:54:53;96497.16;;;1.40;100.00
62634;BME280;48704;50.534;6.442;2023-05-03T02:57:18;96497.56;;;1.38;100.00
62634;BME280;48704;50.534;6.442;2023-05-03T02:59:43;96491.69;;;1.32;100.00
62634;BME280;48704;50.534;6.442;2023-05-03T03:02:09;96492.13;;;0.99;100.00
62634;BME280;48704;50.534;6.442;2023-05-03T03:04:34;96481.94;;;0.96;100.00
62634;BME280;48704;50.534;6.442;2023-05-03T03:06:59;96489.38;;;0.95;100.00
62634;BME280;48704;50.534;6.442;2023-05-03T03:09:25;96489.00;;;1.04;100.00
62634;BME280;48704;50.534;6.442;2023-05-03T03:11:50;96482.72;;;1.00;100.00
62634;BME280;48704;50.534;6.442;2023-05-03T03:14:16;96479.19;;;0.92;100.00
62634;BME280;48704;50.534;6.442;2023-05-03T03:16:41;96472.13;;;0.91;100.00
62634;BME280;48704;50.534;6.442;2023-05-03T03:19:07;96472.13;;;0.88;100.00
62634;BME280;48704;50.534;6.442;2023-05-03T03:21:32;96470.56;;;0.87;100.00
62634;BME280;48704;50.534;6.442;2023-05-03T03:23:58;96469.78;;;0.90;100.00
62634;BME280;48704;50.534;6.442;2023-05-03T03:26:23;96470.16;;;0.99;100.00
62634;BME280;48704;50.534;6.442;2023-05-03T03:28:49;96472.13;;;0.88;100.00
62634;BME280;48704;50.534;6.442;2023-05-03T03:31:15;96463.50;;;0.86;100.00
62634;BME280;48704;50.534;6.442;2023-05-03T03:33:42;96454.09;;;0.83;100.00
62634;BME280;48704;50.534;6.442;2023-05-03T03:36:07;96458.81;;;0.86;100.00
62634;BME280;48704;50.534;6.442;2023-05-03T03:38:34;96456.44;;;0.78;100.00
62634;BME280;48704;50.534;6.442;2023-05-03T03:41:00;96458.44;;;0.66;100.00
62634;BME280;48704;50.534;6.442;2023-05-03T03:43:25;96450.97;;;0.81;100.00
62634;BME280;48704;50.534;6.442;2023-05-03T03:45:50;96456.88;;;0.73;100.00
62634;BME280;48704;50.534;6.442;2023-05-03T03:48:16;96458.06;;;0.72;100.00
62634;BME280;48704;50.534;6.442;2023-05-03T03:50:41;96461.19;;;0.70;100.00
62634;BME280;48704;50.534;6.442;2023-05-03T03:53:07;96448.25;;;0.71;100.00
62634;BME280;48704;50.534;6.442;2023-05-03T03:55:35;96444.31;;;0.54;100.00
62634;BME280;48704;50.534;6.442;2023-05-03T03:58:00;96440.41;;;0.58;100.00
62634;BME280;48704;50.534;6.442;2023-05-03T04:00:25;96447.81;;;0.40;100.00
62634;BME280;48704;50.534;6.442;2023-05-03T04:02:51;96438.78;;;0.08;100.00
62634;BME280;48704;50.534;6.442;2023-05-03T04:05:16;96423.16;;;0.15;100.00
62634;BME280;48704;50.534;6.442;2023-05-03T04:07:41;96425.88;;;0.15;100.00
62634;BME280;48704;50.534;6.442;2023-05-03T04:10:07;96430.53;;;-0.14;100.00
62634;BME280;48704;50.534;6.442;2023-05-03T04:12:32;96416.47;;;-0.05;100.00
62634;BME280;48704;50.534;6.442;2023-05-03T04:14:58;96424.66;;;-0.16;100.00
62634;BME280;48704;50.534;6.442;2023-05-03T04:17:23;96418.81;;;-0.07;100.00
62634;BME280;48704;50.534;6.442;2023-05-03T04:19:48;96418.03;;;0.07;100.00
62634;BME280;48704;50.534;6.442;2023-05-03T04:22:13;96428.22;;;-0.08;100.00
62634;BME280;48704;50.534;6.442;2023-05-03T04:24:39;96431.38;;;0.15;100.00
62634;BME280;48704;50.534;6.442;2023-05-03T04:27:04;96428.63;;;0.19;100.00
62634;BME280;48704;50.534;6.442;2023-05-03T04:29:30;96437.63;;;0.09;100.00
62634;BME280;48704;50.534;6.442;2023-05-03T04:31:55;96438.34;;;-0.19;100.00
62634;BME280;48704;50.534;6.442;2023-05-03T04:34:21;96447.38;;;-0.12;100.00
62634;BME280;48704;50.534;6.442;2023-05-03T04:36:46;96447.78;;;-0.03;100.00
62634;BME280;48704;50.534;6.442;2023-05-03T04:39:11;96456.84;;;0.30;100.00
62634;BME280;48704;50.534;6.442;2023-05-03T04:41:37;96459.59;;;0.44;100.00
62634;BME280;48704;50.534;6.442;2023-05-03T04:44:04;96457.25;;;0.46;100.00
62634;BME280;48704;50.534;6.442;2023-05-03T04:46:30;96454.88;;;0.45;100.00
62634;BME280;48704;50.534;6.442;2023-05-03T04:48:55;96461.16;;;0.52;100.00
62634;BME280;48704;50.534;6.442;2023-05-03T04:51:21;96460.38;;;0.52;100.00
62634;BME280;48704;50.534;6.442;2023-05-03T04:53:47;96469.00;;;0.57;100.00
62634;BME280;48704;50.534;6.442;2023-05-03T04:56:13;96467.84;;;0.73;100.00
62634;BME280;48704;50.534;6.442;2023-05-03T04:58:38;96469.78;;;0.76;100.00
62634;BME280;48704;50.534;6.442;2023-05-03T05:01:03;96465.06;;;0.80;100.00
62634;BME280;48704;50.534;6.442;2023-05-03T05:03:28;96464.25;;;1.22;100.00
62634;BME280;48704;50.534;6.442;2023-05-03T05:05:55;96469.38;;;1.09;100.00
62634;BME280;48704;50.534;6.442;2023-05-03T05:08:20;96463.88;;;1.09;100.00
62634;BME280;48704;50.534;6.442;2023-05-03T05:10:46;96466.59;;;1.16;100.00
62634;BME280;48704;50.534;6.442;2023-05-03T05:13:11;96466.97;;;1.22;100.00
62634;BME280;48704;50.534;6.442;2023-05-03T05:15:36;96471.28;;;1.33;100.00
62634;BME280;48704;50.534;6.442;2023-05-03T05:18:01;96472.84;;;1.42;100.00
62634;BME280;48704;50.534;6.442;2023-05-03T05:20:27;96475.91;;;1.58;100.00
62634;BME280;48704;50.534;6.442;2023-05-03T05:22:52;96484.50;;;1.71;100.00
62634;BME280;48704;50.534;6.442;2023-05-03T05:25:18;96486.06;;;1.79;100.00
62634;BME280;48704;50.534;6.442;2023-05-03T05:27:43;96486.38;;;1.91;100.00
62634;BME280;48704;50.534;6.442;2023-05-03T05:30:09;96490.66;;;1.96;100.00
62634;BME280;48704;50.534;6.442;2023-05-03T05:32:34;96493.75;;;2.09;100.00
62634;BME280;48704;50.534;6.442;2023-05-03T05:34:59;96494.53;;;2.16;100.00
62634;BME280;48704;50.534;6.442;2023-05-03T05:37:25;96494.88;;;2.22;100.00
62634;BME280;48704;50.534;6.442;2023-05-03T05:39:52;96496.78;;;2.28;100.00
62634;BME280;48704;50.534;6.442;2023-05-03T05:42:17;96506.56;;;2.37;100.00
62634;BME280;48704;50.534;6.442;2023-05-03T05:44:42;96499.03;;;2.48;100.00
62634;BME280;48704;50.534;6.442;2023-05-03T05:47:08;96514.72;;;2.58;100.00
62634;BME280;48704;50.534;6.442;2023-05-03T05:49:34;96513.81;;;2.72;100.00
62634;BME280;48704;50.534;6.442;2023-05-03T05:51:59;96504.94;;;2.98;100.00
62634;BME280;48704;50.534;6.442;2023-05-03T05:54:25;96500.44;;;3.22;100.00
62634;BME280;48704;50.534;6.442;2023-05-03T05:56:50;96503.38;;;3.42;100.00
62634;BME280;48704;50.534;6.442;2023-05-03T05:59:16;96513.94;;;3.50;100.00
62634;BME280;48704;50.534;6.442;2023-05-03T06:01:41;96514.41;;;3.42;100.00
62634;BME280;48704;50.534;6.442;2023-05-03T06:04:10;96520.91;;;3.62;100.00
62634;BME280;48704;50.534;6.442;2023-05-03T06:06:36;96516.94;;;3.63;100.00
62634;BME280;48704;50.534;6.442;2023-05-03T06:09:01;96512.06;;;3.78;100.00
62634;BME280;48704;50.534;6.442;2023-05-03T06:11:27;96517.50;;;3.85;100.00
62634;BME280;48704;50.534;6.442;2023-05-03T06:13:52;96521.41;;;3.87;100.00
62634;BME280;48704;50.534;6.442;2023-05-03T06:16:17;96518.03;;;4.07;100.00
62634;BME280;48704;50.534;6.442;2023-05-03T06:18:43;96524.22;;;4.14;100.00
62634;BME280;48704;50.534;6.442;2023-05-03T06:21:08;96523.81;;;4.16;100.00
62634;BME280;48704;50.534;6.442;2023-05-03T06:23:34;96521.38;;;4.21;100.00
62634;BME280;48704;50.534;6.442;2023-05-03T06:26:01;96530.19;;;4.43;100.00
62634;BME280;48704;50.534;6.442;2023-05-03T06:28:27;96521.53;;;4.41;100.00
62634;BME280;48704;50.534;6.442;2023-05-03T06:30:52;96531.53;;;4.58;100.00
62634;BME280;48704;50.534;6.442;2023-05-03T06:33:17;96533.91;;;4.56;100.00
62634;BME280;48704;50.534;6.442;2023-05-03T06:35:42;96526.56;;;4.46;100.00
62634;BME280;48704;50.534;6.442;2023-05-03T06:38:09;96528.50;;;4.49;100.00
62634;BME280;48704;50.534;6.442;2023-05-03T06:40:36;96539.34;;;4.63;100.00
62634;BME280;48704;50.534;6.442;2023-05-03T06:43:01;96536.63;;;4.87;100.00
62634;BME280;48704;50.534;6.442;2023-05-03T06:45:26;96530.78;;;5.08;100.00
62634;BME280;48704;50.534;6.442;2023-05-03T06:47:51;96535.44;;;5.15;100.00
62634;BME280;48704;50.534;6.442;2023-05-03T06:50:17;96527.78;;;5.22;100.00
62634;BME280;48704;50.534;6.442;2023-05-03T06:52:44;96530.84;;;5.28;100.00
62634;BME280;48704;50.534;6.442;2023-05-03T06:55:10;96531.81;;;5.41;100.00
62634;BME280;48704;50.534;6.442;2023-05-03T06:57:35;96525.28;;;5.55;100.00
62634;BME280;48704;50.534;6.442;2023-05-03T07:00:01;96527.81;;;5.46;100.00
62634;BME280;48704;50.534;6.442;2023-05-03T07:02:31;96529.94;;;5.58;100.00
62634;BME280;48704;50.534;6.442;2023-05-03T07:04:56;96525.84;;;5.66;100.00
62634;BME280;48704;50.534;6.442;2023-05-03T07:07:21;96527.34;;;5.70;100.00
62634;BME280;48704;50.534;6.442;2023-05-03T07:09:47;96519.84;;;5.71;100.00
62634;BME280;48704;50.534;6.442;2023-05-03T07:12:12;96509.97;;;5.70;100.00
62634;BME280;48704;50.534;6.442;2023-05-03T07:14:38;96524.34;;;6.04;100.00
62634;BME280;48704;50.534;6.442;2023-05-03T07:17:04;96523.66;;;6.20;100.00
62634;BME280;48704;50.534;6.442;2023-05-03T07:19:29;96522.34;;;5.85;100.00
62634;BME280;48704;50.534;6.442;2023-05-03T07:21:55;96522.34;;;5.85;100.00
62634;BME280;48704;50.534;6.442;2023-05-03T07:24:20;96512.56;;;6.00;100.00
62634;BME280;48704;50.534;6.442;2023-05-03T07:26:45;96516.28;;;6.14;100.00
62634;BME280;48704;50.534;6.442;2023-05-03T07:29:11;96518.34;;;6.29;100.00
62634;BME280;48704;50.534;6.442;2023-05-03T07:31:37;96507.50;;;6.35;100.00
62634;BME280;48704;50.534;6.442;2023-05-03T07:34:02;96506.94;;;6.44;100.00
62634;BME280;48704;50.534;6.442;2023-05-03T07:36:27;96508.97;;;6.59;100.00
62634;BME280;48704;50.534;6.442;2023-05-03T07:38:53;96507.13;;;6.89;100.00
62634;BME280;48704;50.534;6.442;2023-05-03T07:41:18;96509.88;;;6.89;100.00
62634;BME280;48704;50.534;6.442;2023-05-03T07:43:43;96503.38;;;6.79;100.00
62634;BME280;48704;50.534;6.442;2023-05-03T07:46:08;96508.94;;;6.95;100.00
62634;BME280;48704;50.534;6.442;2023-05-03T07:48:34;96507.41;;;7.27;100.00
62634;BME280;48704;50.534;6.442;2023-05-03T07:51:02;96514.75;;;7.17;100.00
62634;BME280;48704;50.534;6.442;2023-05-03T07:53:28;96511.97;;;7.33;100.00
62634;BME280;48704;50.534;6.442;2023-05-03T07:55:53;96496.91;;;7.34;100.00
62634;BME280;48704;50.534;6.442;2023-05-03T07:58:19;96502.75;;;7.53;100.00
62634;BME280;48704;50.534;6.442;2023-05-03T08:00:45;96494.69;;;7.58;100.00
62634;BME280;48704;50.534;6.442;2023-05-03T08:03:10;96485.66;;;7.70;100.00
62634;BME280;48704;50.534;6.442;2023-05-03T08:05:35;96487.81;;;7.79;100.00
62634;BME280;48704;50.534;6.442;2023-05-03T08:08:01;96482.28;;;7.79;100.00
62634;BME280;48704;50.534;6.442;2023-05-03T08:10:28;96482.59;;;7.81;100.00
62634;BME280;48704;50.534;6.442;2023-05-03T08:12:53;96485.66;;;7.99;100.00
62634;BME280;48704;50.534;6.442;2023-05-03T08:15:19;96480.31;;;7.92;100.00
62634;BME280;48704;50.534;6.442;2023-05-03T08:17:44;96489.03;;;8.20;100.00
62634;BME280;48704;50.534;6.442;2023-05-03T08:20:11;96474.78;;;8.34;100.00
62634;BME280;48704;50.534;6.442;2023-05-03T08:22:37;96472.63;;;8.13;99.57
62634;BME280;48704;50.534;6.442;2023-05-03T08:25:03;96477.06;;;8.23;100.00
62634;BME280;48704;50.534;6.442;2023-05-03T08:27:30;96479.47;;;8.50;95.20
62634;BME280;48704;50.534;6.442;2023-05-03T08:29:55;96476.91;;;8.55;98.13
62634;BME280;48704;50.534;6.442;2023-05-03T08:32:21;96479.38;;;8.53;97.76
62634;BME280;48704;50.534;6.442;2023-05-03T08:34:48;96486.38;;;8.70;96.02
62634;BME280;48704;50.534;6.442;2023-05-03T08:37:13;96486.97;;;8.91;98.17
62634;BME280;48704;50.534;6.442;2023-05-03T08:39:38;96490.94;;;9.02;96.71
62634;BME280;48704;50.534;6.442;2023-05-03T08:42:07;96490.97;;;8.90;99.43
62634;BME280;48704;50.534;6.442;2023-05-03T08:44:36;96482.94;;;9.17;93.11
62634;BME280;48704;50.534;6.442;2023-05-03T08:47:02;96488.72;;;9.10;98.95
62634;BME280;48704;50.534;6.442;2023-05-03T08:49:30;96487.38;;;9.02;98.23
62634;BME280;48704;50.534;6.442;2023-05-03T08:51:55;96477.38;;;9.04;96.12
62634;BME280;48704;50.534;6.442;2023-05-03T08:54:20;96492.00;;;9.30;96.12
62634;BME280;48704;50.534;6.442;2023-05-03T08:56:46;96495.00;;;9.36;94.77
62634;BME280;48704;50.534;6.442;2023-05-03T08:59:12;96484.09;;;9.42;94.33
62634;BME280;48704;50.534;6.442;2023-05-03T09:01:40;96480.59;;;9.63;93.78
62634;BME280;48704;50.534;6.442;2023-05-03T09:04:07;96474.09;;;9.66;93.38
62634;BME280;48704;50.534;6.442;2023-05-03T09:06:33;96477.66;;;10.01;89.36
62634;BME280;48704;50.534;6.442;2023-05-03T09:09:00;96483.75;;;10.09;88.98
62634;BME280;48704;50.534;6.442;2023-05-03T09:11:27;96485.56;;;9.68;86.33
62634;BME280;48704;50.534;6.442;2023-05-03T09:14:06;96481.03;;;9.96;90.18
62634;BME280;48704;50.534;6.442;2023-05-03T09:16:32;96481.84;;;10.05;88.78
62634;BME280;48704;50.534;6.442;2023-05-03T09:18:59;96474.22;;;10.19;91.03
62634;BME280;48704;50.534;6.442;2023-05-03T09:21:25;96471.44;;;9.97;91.25
62634;BME280;48704;50.534;6.442;2023-05-03T09:23:50;96471.03;;;10.51;90.79
62634;BME280;48704;50.534;6.442;2023-05-03T09:26:34;96474.19;;;10.31;88.71
62634;BME280;48704;50.534;6.442;2023-05-03T09:29:02;96478.63;;;10.82;90.65
62634;BME280;48704;50.534;6.442;2023-05-03T09:31:32;96480.53;;;10.94;85.51
62634;BME280;48704;50.534;6.442;2023-05-03T09:33:58;96472.22;;;11.03;83.84
62634;BME280;48704;50.534;6.442;2023-05-03T09:36:24;96475.97;;;10.47;87.14
62634;BME280;48704;50.534;6.442;2023-05-03T09:38:52;96473.03;;;10.73;86.00
62634;BME280;48704;50.534;6.442;2023-05-03T09:41:29;96472.84;;;11.07;89.56
62634;BME280;48704;50.534;6.442;2023-05-03T09:43:54;96476.00;;;11.27;85.07
62634;BME280;48704;50.534;6.442;2023-05-03T09:46:21;96480.38;;;11.37;83.43
62634;BME280;48704;50.534;6.442;2023-05-03T09:48:49;96477.53;;;11.10;81.64
62634;BME280;48704;50.534;6.442;2023-05-03T09:51:15;96476.34;;;11.38;82.29
62634;BME280;48704;50.534;6.442;2023-05-03T09:53:40;96461.81;;;11.62;82.12
62634;BME280;48704;50.534;6.442;2023-05-03T09:56:08;96469.44;;;11.89;80.33
62634;BME280;48704;50.534;6.442;2023-05-03T09:58:36;96466.19;;;11.90;81.54
62634;BME280;48704;50.534;6.442;2023-05-03T10:01:02;96468.06;;;12.02;77.48
62634;BME280;48704;50.534;6.442;2023-05-03T10:03:40;96461.69;;;12.02;81.17
62634;BME280;48704;50.534;6.442;2023-05-03T10:06:14;96469.91;;;12.15;78.14
62634;BME280;48704;50.534;6.442;2023-05-03T10:08:48;96464.94;;;12.19;75.26
62634;BME280;48704;50.534;6.442;2023-05-03T10:11:15;96457.09;;;12.59;75.80
62634;BME280;48704;50.534;6.442;2023-05-03T10:13:41;96448.84;;;12.65;72.79
62634;BME280;48704;50.534;6.442;2023-05-03T10:16:17;96445.53;;;12.76;73.58
62634;BME280;48704;50.534;6.442;2023-05-03T10:22:20;96439.88;;;12.94;70.87
62634;BME280;48704;50.534;6.442;2023-05-03T10:24:21;96441.19;;;13.17;66.86
62634;BME280;48704;50.534;6.442;2023-05-03T10:26:49;96445.16;;;13.96;66.32
62634;BME280;48704;50.534;6.442;2023-05-03T10:32:32;96443.66;;;14.25;69.53
62634;BME280;48704;50.534;6.442;2023-05-03T10:35:06;96437.72;;;14.61;65.33
62634;BME280;48704;50.534;6.442;2023-05-03T10:37:32;96430.38;;;13.96;63.66
62634;BME280;48704;50.534;6.442;2023-05-03T10:40:13;96433.91;;;14.35;65.09
62634;BME280;48704;50.534;6.442;2023-05-03T10:42:43;96444.19;;;14.67;60.97
62634;BME280;48704;50.534;6.442;2023-05-03T10:45:19;96436.41;;;15.07;63.19
62634;BME280;48704;50.534;6.442;2023-05-03T10:50:36;96434.91;;;14.61;58.33
62634;BME280;48704;50.534;6.442;2023-05-03T10:53:01;96440.56;;;15.11;56.90
62634;BME280;48704;50.534;6.442;2023-05-03T10:55:26;96443.88;;;14.95;55.49
62634;BME280;48704;50.534;6.442;2023-05-03T10:57:56;96446.00;;;15.70;59.84
62634;BME280;48704;50.534;6.442;2023-05-03T11:00:34;96446.56;;;15.74;56.01
62634;BME280;48704;50.534;6.442;2023-05-03T11:05:49;96446.41;;;16.03;55.64
62634;BME280;48704;50.534;6.442;2023-05-03T11:08:17;96441.41;;;16.13;55.94
62634;BME280;48704;50.534;6.442;2023-05-03T11:10:43;96444.28;;;16.19;55.67
62634;BME280;48704;50.534;6.442;2023-05-03T11:13:09;96443.63;;;16.55;51.64
62634;BME280;48704;50.534;6.442;2023-05-03T11:15:35;96437.59;;;16.42;53.73
62634;BME280;48704;50.534;6.442;2023-05-03T11:18:01;96434.97;;;16.85;51.46
62634;BME280;48704;50.534;6.442;2023-05-03T11:20:26;96419.84;;;16.56;54.23
62634;BME280;48704;50.534;6.442;2023-05-03T11:22:52;96418.81;;;17.59;52.32
62634;BME280;48704;50.534;6.442;2023-05-03T11:25:18;96421.13;;;17.61;48.74
62634;BME280;48704;50.534;6.442;2023-05-03T11:27:43;96418.69;;;17.80;51.43
62634;BME280;48704;50.534;6.442;2023-05-03T11:30:11;96421.22;;;17.72;51.81
62634;BME280;48704;50.534;6.442;2023-05-03T11:32:37;96418.53;;;18.06;49.59
62634;BME280;48704;50.534;6.442;2023-05-03T11:35:03;96411.66;;;18.29;48.28
62634;BME280;48704;50.534;6.442;2023-05-03T11:37:33;96415.28;;;18.57;47.77
62634;BME280;48704;50.534;6.442;2023-05-03T11:39:59;96407.06;;;18.59;46.60
62634;BME280;48704;50.534;6.442;2023-05-03T11:42:24;96404.97;;;18.15;47.38
62634;BME280;48704;50.534;6.442;2023-05-03T11:44:53;96400.81;;;17.99;47.49
62634;BME280;48704;50.534;6.442;2023-05-03T11:47:19;96406.59;;;18.66;44.82
62634;BME280;48704;50.534;6.442;2023-05-03T11:49:55;96401.72;;;18.95;47.61
62634;BME280;48704;50.534;6.442;2023-05-03T11:52:25;96410.69;;;19.21;44.86
62634;BME280;48704;50.534;6.442;2023-05-03T11:54:52;96401.25;;;17.87;44.36
62634;BME280;48704;50.534;6.442;2023-05-03T11:57:18;96402.19;;;18.43;46.92
62634;BME280;48704;50.534;6.442;2023-05-03T11:59:43;96404.56;;;18.73;45.65
62634;BME280;48704;50.534;6.442;2023-05-03T12:02:14;96401.97;;;18.63;46.07
62634;BME280;48704;50.534;6.442;2023-05-03T12:04:41;96402.94;;;19.50;44.40
62634;BME280;48704;50.534;6.442;2023-05-03T12:07:07;96398.38;;;19.24;44.22
62634;BME280;48704;50.534;6.442;2023-05-03T12:09:33;96402.25;;;18.82;44.83
62634;BME280;48704;50.534;6.442;2023-05-03T12:12:00;96406.09;;;18.96;45.02
62634;BME280;48704;50.534;6.442;2023-05-03T12:14:26;96403.00;;;19.27;44.51
62634;BME280;48704;50.534;6.442;2023-05-03T12:16:52;96395.81;;;19.04;42.39
62634;BME280;48704;50.534;6.442;2023-05-03T12:19:29;96396.34;;;18.75;44.13
62634;BME280;48704;50.534;6.442;2023-05-03T12:21:55;96400.22;;;19.96;42.57
62634;BME280;48704;50.534;6.442;2023-05-03T12:24:21;96396.78;;;19.46;45.45
62634;BME280;48704;50.534;6.442;2023-05-03T12:26:48;96400.44;;;19.07;43.69
62634;BME280;48704;50.534;6.442;2023-05-03T12:29:14;96392.66;;;19.58;41.34
62634;BME280;48704;50.534;6.442;2023-05-03T12:31:43;96388.63;;;19.14;42.30
62634;BME280;48704;50.534;6.442;2023-05-03T12:34:09;96388.69;;;19.89;44.00
62634;BME280;48704;50.534;6.442;2023-05-03T12:36:34;96383.06;;;20.71;40.97
62634;BME280;48704;50.534;6.442;2023-05-03T12:39:00;96385.16;;;20.65;40.13
62634;BME280;48704;50.534;6.442;2023-05-03T12:41:26;96378.13;;;20.36;41.90
62634;BME280;48704;50.534;6.442;2023-05-03T12:43:54;96372.47;;;19.89;42.00
62634;BME280;48704;50.534;6.442;2023-05-03T12:46:21;96369.47;;;20.64;42.64
62634;BME280;48704;50.534;6.442;2023-05-03T12:48:47;96357.41;;;20.58;41.91
62634;BME280;48704;50.534;6.442;2023-05-03T12:51:12;96359.00;;;20.53;41.68
62634;BME280;48704;50.534;6.442;2023-05-03T12:53:39;96359.41;;;19.81;43.14
62634;BME280;48704;50.534;6.442;2023-05-03T12:56:05;96350.69;;;20.91;41.48
62634;BME280;48704;50.534;6.442;2023-05-03T12:58:30;96353.00;;;20.21;43.20
62634;BME280;48704;50.534;6.442;2023-05-03T13:00:56;96351.19;;;20.24;42.52
62634;BME280;48704;50.534;6.442;2023-05-03T13:03:22;96341.06;;;21.29;42.20
62634;BME280;48704;50.534;6.442;2023-05-03T13:05:47;96340.84;;;20.32;39.35
62634;BME280;48704;50.534;6.442;2023-05-03T13:08:12;96338.41;;;20.12;42.33
62634;BME280;48704;50.534;6.442;2023-05-03T13:10:38;96331.78;;;20.03;41.46
62634;BME280;48704;50.534;6.442;2023-05-03T13:13:06;96328.00;;;20.31;41.61
62634;BME280;48704;50.534;6.442;2023-05-03T13:15:33;96326.97;;;20.94;41.11